LIBV

Gioia Del Colle Airport

Gioia Del Colle, Italy
TAF LIBV 142000Z 1421/1506 VRB03KT 0500 FG BKN001
Issued Valid From Valid To
Dec-14 @ 20:00 UTC
(2 hours ago)
Dec-14 @ 21:00 UTC
(50 minutes ago)
Dec-15 @ 06:00 UTC
(in 8 hours)
Dec-14 @ 21:00 to Dec-15 @ 06:00
TAF LIBV 142000Z 1421/1506 VRB03KT 0500 FG BKN001
Wind Visibility Clouds Conditions
Variable at 3 knots 499 meters
  • Broken at 100' AGL
  • Fog
TAF LIBV 142000Z 1421/1506 VRB03KT 0500 FG BKN001
Issued Dec-14 @ 20:00 UTC
(2 hours ago)
Valid From Dec-14 @ 21:00 UTC
(50 minutes ago)
Valid To Dec-15 @ 06:00 UTC
(in 8 hours)
Dec-14 @ 21:00 - Dec-15 @ 06:00
Wind Visibility
Variable at 3 knots 499 meters
Clouds
  • Broken at 100' AGL
Conditions
  • Fog